createdAt,value
2017-08-19T00:00:31.001Z,0
2017-08-19T00:01:30.680Z,0
2017-08-19T00:02:30.702Z,0
2017-08-19T00:03:30.320Z,0
2017-08-19T00:04:30.610Z,0
2017-08-19T00:05:30.950Z,0
2017-08-19T00:06:30.587Z,0
2017-08-19T00:07:29.981Z,0
2017-08-19T00:08:30.534Z,0
2017-08-19T00:09:30.843Z,0
2017-08-19T00:10:30.821Z,0
2017-08-19T00:11:30.490Z,0
2017-08-19T00:12:30.844Z,0
2017-08-19T00:13:30.751Z,0
2017-08-19T00:14:30.750Z,0
2017-08-19T00:15:30.430Z,0
2017-08-19T00:16:30.695Z,0
2017-08-19T00:17:30.709Z,0
2017-08-19T00:18:30.369Z,0
2017-08-19T00:19:30.648Z,0
2017-08-19T00:20:30.332Z,0
2017-08-19T00:21:30.301Z,0
2017-08-19T00:22:29.420Z,0
2017-08-19T00:23:30.582Z,0
2017-08-19T00:24:30.252Z,0
2017-08-19T00:25:30.240Z,0
2017-08-19T00:26:30.214Z,0
2017-08-19T00:27:30.236Z,0
2017-08-19T00:28:30.158Z,0
2017-08-19T00:29:29.857Z,0
2017-08-19T00:30:29.859Z,0
2017-08-19T00:31:30.184Z,0
2017-08-19T00:32:30.156Z,0
2017-08-19T00:33:30.458Z,0
2017-08-19T00:34:30.083Z,0
2017-08-19T00:35:30.089Z,0
2017-08-19T00:36:30.059Z,0
2017-08-19T00:37:30.304Z,0
2017-08-19T00:38:30.330Z,0
2017-08-19T00:39:29.768Z,0
2017-08-19T00:40:29.971Z,0
2017-08-19T00:41:29.989Z,0
2017-08-19T00:42:30.251Z,0
2017-08-19T00:43:29.608Z,0
2017-08-19T00:44:28.986Z,0
2017-08-19T00:45:30.193Z,0
2017-08-19T00:46:30.171Z,0
2017-08-19T00:47:30.161Z,0
2017-08-19T00:48:29.231Z,0
2017-08-19T00:49:29.830Z,0
2017-08-19T00:50:29.492Z,0
2017-08-19T00:51:30.146Z,0
2017-08-19T00:52:29.459Z,0
2017-08-19T00:53:30.070Z,0
2017-08-19T00:54:29.726Z,0
2017-08-19T00:55:29.760Z,0
2017-08-19T00:56:29.093Z,0
2017-08-19T00:57:29.990Z,0
2017-08-19T00:58:29.054Z,0
2017-08-19T00:59:29.659Z,0
2017-08-19T01:00:29.357Z,0
2017-08-19T01:01:29.298Z,0
2017-08-19T01:02:29.272Z,0
2017-08-19T01:03:29.047Z,0
2017-08-19T01:04:29.361Z,0
2017-08-19T01:05:29.862Z,0
2017-08-19T01:06:29.217Z,0
2017-08-19T01:07:29.811Z,0
2017-08-19T01:08:29.167Z,0
2017-08-19T01:09:29.587Z,0
2017-08-19T01:10:29.439Z,0
2017-08-19T01:11:29.130Z,0
2017-08-19T01:12:29.418Z,0
2017-08-19T01:13:29.459Z,0
2017-08-19T01:14:29.380Z,0
2017-08-19T01:15:29.681Z,0
2017-08-19T01:16:29.037Z,0
2017-08-19T01:17:29.026Z,0
2017-08-19T01:18:29.299Z,0
2017-08-19T01:19:29.265Z,0
2017-08-19T01:20:29.371Z,0
2017-08-19T01:21:28.929Z,0
2017-08-19T01:22:29.036Z,0
2017-08-19T01:23:29.222Z,0
2017-08-19T01:24:28.887Z,0
2017-08-19T01:25:29.179Z,0
2017-08-19T01:26:28.861Z,0
2017-08-19T01:27:29.240Z,0
2017-08-19T01:28:29.144Z,0
2017-08-19T01:29:29.407Z,0
2017-08-19T01:30:28.775Z,0
2017-08-19T01:31:29.166Z,0
2017-08-19T01:32:28.738Z,0
2017-08-19T01:33:28.735Z,0
2017-08-19T01:34:29.011Z,0
2017-08-19T01:35:29.143Z,0
2017-08-19T01:36:28.672Z,0
2017-08-19T01:37:28.721Z,0
2017-08-19T01:38:28.653Z,0
2017-08-19T01:39:29.250Z,0
2017-08-19T01:40:29.032Z,0
2017-08-19T01:41:28.885Z,0
2017-08-19T01:42:28.891Z,0
2017-08-19T01:43:28.876Z,0
2017-08-19T01:44:28.850Z,0
2017-08-19T01:45:29.115Z,0
2017-08-19T01:46:29.107Z,0
2017-08-19T01:47:29.086Z,0
2017-08-19T01:48:28.796Z,0
2017-08-19T01:49:28.471Z,0
2017-08-19T01:50:29.048Z,0
2017-08-19T01:51:29.016Z,0
2017-08-19T01:52:29.001Z,0
2017-08-19T01:53:28.359Z,0
2017-08-19T01:54:28.685Z,0
2017-08-19T01:55:28.931Z,0
2017-08-19T01:56:28.632Z,0
2017-08-19T01:57:28.922Z,0
2017-08-19T01:58:28.921Z,0
2017-08-19T01:59:28.882Z,0
2017-08-19T02:00:28.271Z,0
2017-08-19T02:01:28.234Z,0
2017-08-19T02:02:28.834Z,0
2017-08-19T02:03:28.811Z,0
2017-08-19T02:04:28.788Z,0
2017-08-19T02:05:28.469Z,0
2017-08-19T02:06:28.764Z,0
2017-08-19T02:07:29.035Z,0
2017-08-19T02:08:28.708Z,0
2017-08-19T02:09:28.705Z,0
2017-08-19T02:10:28.381Z,0
2017-08-19T02:11:28.693Z,0
2017-08-19T02:12:28.649Z,0
2017-08-19T02:13:28.637Z,0
2017-08-19T02:14:28.309Z,0
2017-08-19T02:15:28.277Z,0
2017-08-19T02:16:28.261Z,0
2017-08-19T02:17:27.393Z,0
2017-08-19T02:18:27.921Z,0
2017-08-19T02:19:28.202Z,0
2017-08-19T02:20:27.900Z,0
2017-08-19T02:21:28.165Z,0
2017-08-19T02:22:28.179Z,0
2017-08-19T02:23:28.447Z,0
2017-08-19T02:24:28.197Z,0
2017-08-19T02:25:28.405Z,0
2017-08-19T02:26:28.305Z,0
2017-08-19T02:27:27.785Z,0
2017-08-19T02:28:27.783Z,0
2017-08-19T02:29:28.233Z,0
2017-08-19T02:30:27.720Z,0
2017-08-19T02:31:28.331Z,0
2017-08-19T02:32:27.982Z,0
2017-08-19T02:33:27.962Z,0
2017-08-19T02:34:28.260Z,0
2017-08-19T02:35:27.630Z,0
2017-08-19T02:36:28.227Z,0
2017-08-19T02:37:27.565Z,0
2017-08-19T02:38:27.273Z,0
2017-08-19T02:39:27.587Z,0
2017-08-19T02:40:27.621Z,0
2017-08-19T02:41:27.568Z,0
2017-08-19T02:42:27.789Z,0
2017-08-19T02:43:27.789Z,0
2017-08-19T02:44:27.601Z,0
2017-08-19T02:45:27.722Z,0
2017-08-19T02:46:27.714Z,0
2017-08-19T02:47:27.759Z,0
2017-08-19T02:48:27.683Z,0
2017-08-19T02:49:27.984Z,0
2017-08-19T02:50:27.657Z,0
2017-08-19T02:51:27.376Z,0
2017-08-19T02:52:27.040Z,0
2017-08-19T02:53:27.630Z,0
2017-08-19T02:54:27.589Z,0
2017-08-19T02:55:27.880Z,0
2017-08-19T02:56:27.851Z,0
2017-08-19T02:57:27.622Z,0
2017-08-19T02:58:27.823Z,0
2017-08-19T02:59:27.494Z,0
2017-08-19T03:00:27.472Z,0
2017-08-19T03:01:27.223Z,0
2017-08-19T03:02:26.813Z,0
2017-08-19T03:03:27.741Z,0
2017-08-19T03:04:27.089Z,0
2017-08-19T03:05:27.072Z,0
2017-08-19T03:06:27.682Z,0
2017-08-19T03:07:27.650Z,0
2017-08-19T03:08:27.259Z,0
2017-08-19T03:09:27.301Z,0
2017-08-19T03:10:27.378Z,0
2017-08-19T03:11:27.413Z,0
2017-08-19T03:12:26.632Z,0
2017-08-19T03:13:27.025Z,0
2017-08-19T03:14:26.599Z,0
2017-08-19T03:15:26.888Z,0
2017-08-19T03:16:27.496Z,0
2017-08-19T03:17:26.863Z,0
2017-08-19T03:18:26.833Z,0
2017-08-19T03:19:26.822Z,0
2017-08-19T03:20:26.809Z,0
2017-08-19T03:21:27.103Z,0
2017-08-19T03:22:27.102Z,0
2017-08-19T03:23:27.492Z,0
2017-08-19T03:24:27.382Z,0
2017-08-19T03:25:26.712Z,0
2017-08-19T03:26:26.683Z,0
2017-08-19T03:27:27.298Z,0
2017-08-19T03:28:26.663Z,0
2017-08-19T03:29:26.662Z,0
2017-08-19T03:30:26.994Z,0
2017-08-19T03:31:26.882Z,0
2017-08-19T03:32:26.941Z,0
2017-08-19T03:33:26.584Z,0
2017-08-19T03:34:26.550Z,0
2017-08-19T03:35:26.544Z,0
2017-08-19T03:36:25.903Z,0
2017-08-19T03:37:26.915Z,0
2017-08-19T03:38:26.488Z,0
2017-08-19T03:39:26.880Z,0
2017-08-19T03:40:26.463Z,0
2017-08-19T03:41:26.492Z,0
2017-08-19T03:42:26.384Z,0
2017-08-19T03:43:26.403Z,0
2017-08-19T03:44:26.971Z,0
2017-08-19T03:45:26.659Z,0
2017-08-19T03:46:26.632Z,0
2017-08-19T03:47:26.623Z,0
2017-08-19T03:48:26.312Z,0
2017-08-19T03:49:26.703Z,0
2017-08-19T03:50:26.574Z,0
2017-08-19T03:51:26.543Z,0
2017-08-19T03:52:26.531Z,0
2017-08-19T03:53:26.822Z,0
2017-08-19T03:54:26.487Z,0
2017-08-19T03:55:26.570Z,0
2017-08-19T03:56:26.490Z,0
2017-08-19T03:57:26.754Z,0
2017-08-19T03:58:26.830Z,0
2017-08-19T03:59:26.408Z,0
2017-08-19T04:00:26.688Z,0
2017-08-19T04:01:26.383Z,0
2017-08-19T04:02:26.685Z,0
2017-08-19T04:03:26.632Z,0
2017-08-19T04:04:26.346Z,0
2017-08-19T04:05:25.995Z,0
2017-08-19T04:06:26.293Z,0
2017-08-19T04:07:25.964Z,0
2017-08-19T04:08:26.564Z,0
2017-08-19T04:09:26.302Z,0
2017-08-19T04:10:26.303Z,0
2017-08-19T04:11:26.191Z,0
2017-08-19T04:12:26.623Z,0
2017-08-19T04:13:26.564Z,0
2017-08-19T04:14:26.453Z,0
2017-08-19T04:15:26.212Z,0
2017-08-19T04:16:26.409Z,0
2017-08-19T04:17:26.412Z,0
2017-08-19T04:18:26.377Z,0
2017-08-19T04:19:26.445Z,0
2017-08-19T04:20:26.022Z,0
2017-08-19T04:21:25.391Z,0
2017-08-19T04:22:26.413Z,0
2017-08-19T04:23:25.975Z,0
2017-08-19T04:24:25.930Z,0
2017-08-19T04:25:25.911Z,0
2017-08-19T04:26:25.383Z,5
2017-08-19T04:27:26.013Z,5
2017-08-19T04:28:25.973Z,5
2017-08-19T04:29:25.843Z,5
2017-08-19T04:30:26.136Z,5
2017-08-19T04:31:25.813Z,5
2017-08-19T04:32:26.152Z,5
2017-08-19T04:33:25.793Z,5
2017-08-19T04:34:25.763Z,5
2017-08-19T04:35:26.045Z,5
2017-08-19T04:36:26.042Z,5
2017-08-19T04:37:25.713Z,10
2017-08-19T04:38:25.992Z,10
2017-08-19T04:39:25.964Z,10
2017-08-19T04:40:26.003Z,10
2017-08-19T04:41:25.329Z,10
2017-08-19T04:42:26.011Z,10
2017-08-19T04:43:25.651Z,15
2017-08-19T04:44:25.919Z,15
2017-08-19T04:45:25.552Z,15
2017-08-19T04:46:25.233Z,15
2017-08-19T04:47:24.916Z,15
2017-08-19T04:48:25.538Z,15
2017-08-19T04:49:25.564Z,15
2017-08-19T04:50:25.163Z,20
2017-08-19T04:51:25.473Z,20
2017-08-19T04:52:25.429Z,20
2017-08-19T04:53:25.155Z,20
2017-08-19T04:54:25.803Z,20
2017-08-19T04:55:25.383Z,20
2017-08-19T04:56:25.045Z,25
2017-08-19T04:57:25.643Z,25
2017-08-19T04:58:25.354Z,25
2017-08-19T04:59:24.995Z,25
2017-08-19T05:00:25.274Z,25
2017-08-19T05:01:25.275Z,25
2017-08-19T05:02:25.013Z,30
2017-08-19T05:03:25.522Z,30
2017-08-19T05:04:24.924Z,30
2017-08-19T05:05:25.213Z,30
2017-08-19T05:06:24.560Z,30
2017-08-19T05:07:25.453Z,35
2017-08-19T05:08:25.455Z,35
2017-08-19T05:09:25.441Z,35
2017-08-19T05:10:25.151Z,35
2017-08-19T05:11:25.126Z,35
2017-08-19T05:12:25.363Z,35
2017-08-19T05:13:25.361Z,40
2017-08-19T05:14:24.411Z,40
2017-08-19T05:15:25.312Z,40
2017-08-19T05:16:25.353Z,40
2017-08-19T05:17:24.965Z,40
2017-08-19T05:18:24.948Z,40
2017-08-19T05:19:24.922Z,45
2017-08-19T05:20:24.619Z,45
2017-08-19T05:21:24.892Z,45
2017-08-19T05:22:24.891Z,45
2017-08-19T05:23:25.179Z,45
2017-08-19T05:24:24.572Z,50
2017-08-19T05:25:24.278Z,50
2017-08-19T05:26:24.813Z,50
2017-08-19T05:27:25.219Z,50
2017-08-19T05:28:24.467Z,50
2017-08-19T05:29:25.201Z,50
2017-08-19T05:30:24.770Z,50
2017-08-19T05:31:24.793Z,55
2017-08-19T05:32:24.410Z,55
2017-08-19T05:33:24.792Z,55
2017-08-19T05:34:24.737Z,55
2017-08-19T05:35:24.338Z,55
2017-08-19T05:36:24.960Z,55
2017-08-19T05:37:24.703Z,60
2017-08-19T05:38:24.589Z,60
2017-08-19T05:39:24.631Z,60
2017-08-19T05:40:23.946Z,60
2017-08-19T05:41:24.640Z,60
2017-08-19T05:42:24.221Z,60
2017-08-19T05:43:24.963Z,65
2017-08-19T05:44:24.161Z,65
2017-08-19T05:45:24.479Z,65
2017-08-19T05:46:24.453Z,65
2017-08-19T05:47:24.173Z,65
2017-08-19T05:48:24.122Z,65
2017-08-19T05:49:24.487Z,70
2017-08-19T05:50:24.130Z,70
2017-08-19T05:51:24.351Z,70
2017-08-19T05:52:24.340Z,70
2017-08-19T05:53:24.679Z,70
2017-08-19T05:54:24.296Z,70
2017-08-19T05:55:23.992Z,70
2017-08-19T05:56:23.663Z,70
2017-08-19T05:57:24.250Z,70
2017-08-19T05:58:24.242Z,70
2017-08-19T05:59:24.257Z,70
2017-08-19T06:00:24.192Z,75
2017-08-19T06:01:24.185Z,75
2017-08-19T06:02:24.161Z,75
2017-08-19T06:03:24.147Z,75
2017-08-19T06:04:24.146Z,75
2017-08-19T06:05:24.098Z,80
2017-08-19T06:06:24.458Z,80
2017-08-19T06:07:23.803Z,80
2017-08-19T06:08:23.748Z,80
2017-08-19T06:09:24.037Z,80
2017-08-19T06:10:24.014Z,80
2017-08-19T06:11:24.327Z,80
2017-08-19T06:12:23.417Z,85
2017-08-19T06:13:23.974Z,85
2017-08-19T06:14:24.261Z,85
2017-08-19T06:15:23.944Z,90
2017-08-19T06:16:23.923Z,90
2017-08-19T06:17:24.206Z,90
2017-08-19T06:18:24.171Z,90
2017-08-19T06:19:24.206Z,95
2017-08-19T06:20:24.163Z,95
2017-08-19T06:21:24.129Z,95
2017-08-19T06:22:24.207Z,95
2017-08-19T06:23:24.086Z,95
2017-08-19T06:24:24.179Z,100
2017-08-19T06:25:24.051Z,105
2017-08-19T06:26:23.111Z,100
2017-08-19T06:27:24.042Z,105
2017-08-19T06:28:24.069Z,105
2017-08-19T06:29:23.982Z,105
2017-08-19T06:30:23.359Z,110
2017-08-19T06:31:24.080Z,110
2017-08-19T06:32:23.939Z,110
2017-08-19T06:33:23.610Z,110
2017-08-19T06:34:23.585Z,115
2017-08-19T06:35:23.885Z,115
2017-08-19T06:36:23.917Z,115
2017-08-19T06:37:22.920Z,130
2017-08-19T06:38:23.212Z,130
2017-08-19T06:39:23.495Z,130
2017-08-19T06:40:23.494Z,135
2017-08-19T06:41:23.479Z,145
2017-08-19T06:42:23.456Z,160
2017-08-19T06:43:23.449Z,175
2017-08-19T06:44:22.801Z,195
2017-08-19T06:45:23.423Z,195
2017-08-19T06:46:23.696Z,185
2017-08-19T06:47:23.726Z,175
2017-08-19T06:48:23.336Z,165
2017-08-19T06:49:23.018Z,185
2017-08-19T06:50:23.600Z,155
2017-08-19T06:51:22.992Z,110
2017-08-19T06:52:23.586Z,130
2017-08-19T06:53:22.950Z,150
2017-08-19T06:54:23.531Z,225
2017-08-19T06:55:23.536Z,250
2017-08-19T06:56:23.211Z,270
2017-08-19T06:57:22.884Z,205
2017-08-19T06:58:23.189Z,215
2017-08-19T06:59:22.859Z,245
2017-08-19T07:00:23.494Z,220
2017-08-19T07:01:22.828Z,215
2017-08-19T07:02:22.797Z,175
2017-08-19T07:03:23.084Z,170
2017-08-19T07:04:23.372Z,150
2017-08-19T07:05:23.058Z,140
2017-08-19T07:06:22.741Z,140
2017-08-19T07:07:23.027Z,130
2017-08-19T07:08:23.039Z,145
2017-08-19T07:09:22.989Z,140
2017-08-19T07:10:22.989Z,125
2017-08-19T07:11:22.965Z,95
2017-08-19T07:12:22.941Z,85
2017-08-19T07:13:22.619Z,80
2017-08-19T07:14:23.210Z,105
2017-08-19T07:15:22.585Z,135
2017-08-19T07:16:22.273Z,495
2017-08-19T07:17:22.551Z,165
2017-08-19T07:18:22.253Z,180
2017-08-19T07:19:22.833Z,235
2017-08-19T07:20:22.200Z,1110
2017-08-19T07:21:23.125Z,250
2017-08-19T07:22:22.480Z,455
2017-08-19T07:23:22.452Z,345
2017-08-19T07:24:22.748Z,235
2017-08-19T07:25:23.028Z,170
2017-08-19T07:26:22.610Z,115
2017-08-19T07:27:23.009Z,115
2017-08-19T07:28:23.004Z,115
2017-08-19T07:29:22.428Z,95
2017-08-19T07:30:23.197Z,125
2017-08-19T07:31:22.668Z,165
2017-08-19T07:32:22.338Z,125
2017-08-19T07:33:22.916Z,105
2017-08-19T07:34:22.890Z,70
2017-08-19T07:35:22.577Z,65
2017-08-19T07:36:22.939Z,75
2017-08-19T07:37:22.560Z,85
2017-08-19T07:38:22.528Z,90
2017-08-19T07:39:21.920Z,75
2017-08-19T07:40:22.818Z,60
2017-08-19T07:41:22.206Z,60
2017-08-19T07:42:22.468Z,75
2017-08-19T07:43:22.741Z,70
2017-08-19T07:44:22.739Z,65
2017-08-19T07:45:22.438Z,65
2017-08-19T07:46:22.082Z,55
2017-08-19T07:47:22.128Z,55
2017-08-19T07:48:22.395Z,50
2017-08-19T07:49:22.652Z,55
2017-08-19T07:50:22.372Z,60
2017-08-19T07:51:22.029Z,50
2017-08-19T07:52:22.306Z,45
2017-08-19T07:53:22.272Z,50
2017-08-19T07:54:21.653Z,70
2017-08-19T07:55:21.662Z,85
2017-08-19T07:56:22.275Z,110
2017-08-19T07:57:21.607Z,150
2017-08-19T07:58:22.199Z,1295
2017-08-19T07:59:22.200Z,1125
2017-08-19T08:00:22.228Z,375
2017-08-19T08:01:22.478Z,505
2017-08-19T08:02:21.837Z,225
2017-08-19T08:03:21.835Z,250
2017-08-19T08:04:21.842Z,150
2017-08-19T08:05:22.139Z,180
2017-08-19T08:06:22.208Z,820
2017-08-19T08:07:22.069Z,310
2017-08-19T08:08:22.050Z,210
2017-08-19T08:09:22.341Z,255
2017-08-19T08:10:22.338Z,195
2017-08-19T08:11:22.308Z,185
2017-08-19T08:12:21.993Z,200
2017-08-19T08:13:22.088Z,245
2017-08-19T08:14:21.770Z,515
2017-08-19T08:15:21.684Z,210
2017-08-19T08:16:22.258Z,195
2017-08-19T08:17:21.635Z,135
2017-08-19T08:18:22.192Z,135
2017-08-19T08:19:21.633Z,260
2017-08-19T08:20:21.931Z,225
2017-08-19T08:21:21.875Z,110
2017-08-19T08:22:21.562Z,135
2017-08-19T08:23:21.881Z,150
2017-08-19T08:24:22.197Z,120
2017-08-19T08:25:21.791Z,85
2017-08-19T08:26:22.080Z,70
2017-08-19T08:27:21.779Z,80
2017-08-19T08:28:21.889Z,70
2017-08-19T08:29:21.763Z,80
2017-08-19T08:30:21.744Z,65
2017-08-19T08:31:21.699Z,60
2017-08-19T08:32:21.703Z,55
2017-08-19T08:33:21.979Z,60
2017-08-19T08:34:21.650Z,65
2017-08-19T08:35:21.350Z,50
2017-08-19T08:36:21.674Z,50
2017-08-19T08:37:21.910Z,70
2017-08-19T08:38:21.620Z,60
2017-08-19T08:39:21.934Z,55
2017-08-19T08:40:21.868Z,65
2017-08-19T08:41:21.546Z,60
2017-08-19T08:42:21.906Z,50
2017-08-19T08:43:21.940Z,45
2017-08-19T08:44:21.198Z,45
2017-08-19T08:45:21.898Z,50
2017-08-19T08:46:21.892Z,55
2017-08-19T08:47:21.560Z,65
2017-08-19T08:48:21.759Z,70
2017-08-19T08:49:21.441Z,75
2017-08-19T08:50:21.415Z,80
2017-08-19T08:51:21.713Z,75
2017-08-19T08:52:21.754Z,90
2017-08-19T08:53:21.042Z,100
2017-08-19T08:54:21.466Z,85
2017-08-19T08:55:21.466Z,85
2017-08-19T08:56:21.648Z,80
2017-08-19T08:57:21.619Z,90
2017-08-19T08:58:21.270Z,120
2017-08-19T08:59:21.259Z,155
2017-08-19T09:00:21.634Z,145
2017-08-19T09:01:21.550Z,120
2017-08-19T09:02:21.534Z,115
2017-08-19T09:03:21.551Z,130
2017-08-19T09:04:20.608Z,175
2017-08-19T09:05:20.872Z,215
2017-08-19T09:06:21.511Z,995
2017-08-19T09:07:21.444Z,390
2017-08-19T09:08:21.461Z,235
2017-08-19T09:09:21.110Z,220
2017-08-19T09:10:21.083Z,280
2017-08-19T09:11:21.390Z,630
2017-08-19T09:12:20.764Z,315
2017-08-19T09:13:21.380Z,245
2017-08-19T09:14:21.422Z,1355
2017-08-19T09:15:20.701Z,245
2017-08-19T09:16:21.023Z,220
2017-08-19T09:17:21.010Z,200
2017-08-19T09:18:21.281Z,195
2017-08-19T09:19:21.271Z,175
2017-08-19T09:20:20.939Z,225
2017-08-19T09:21:20.659Z,205
2017-08-19T09:22:21.218Z,160
2017-08-19T09:23:20.341Z,185
2017-08-19T09:24:21.189Z,140
2017-08-19T09:25:21.190Z,115
2017-08-19T09:26:20.848Z,110
2017-08-19T09:27:21.200Z,115
2017-08-19T09:28:20.870Z,185
2017-08-19T09:29:21.332Z,115
2017-08-19T09:30:21.143Z,110
2017-08-19T09:31:20.191Z,130
2017-08-19T09:32:21.092Z,120
2017-08-19T09:33:21.075Z,130
2017-08-19T09:34:21.050Z,140
2017-08-19T09:35:21.020Z,135
2017-08-19T09:36:20.707Z,100
2017-08-19T09:37:20.801Z,85
2017-08-19T09:38:20.973Z,100
2017-08-19T09:39:20.640Z,100
2017-08-19T09:40:20.947Z,120
2017-08-19T09:41:20.642Z,140
2017-08-19T09:42:20.341Z,110
2017-08-19T09:43:20.599Z,100
2017-08-19T09:44:20.890Z,110
2017-08-19T09:45:20.580Z,150
2017-08-19T09:46:20.569Z,160
2017-08-19T09:47:20.541Z,180
2017-08-19T09:48:20.836Z,200
2017-08-19T09:49:20.499Z,185
2017-08-19T09:50:20.480Z,165
2017-08-19T09:51:20.508Z,140
2017-08-19T09:52:20.470Z,150
2017-08-19T09:53:20.750Z,155
2017-08-19T09:54:20.751Z,170
2017-08-19T09:55:20.534Z,165
2017-08-19T09:56:20.729Z,500
2017-08-19T09:57:20.700Z,505
2017-08-19T09:58:20.419Z,175
2017-08-19T09:59:20.360Z,495
2017-08-19T10:00:20.360Z,910
2017-08-19T10:01:20.377Z,1155
2017-08-19T10:02:20.036Z,865
2017-08-19T10:03:20.312Z,435
2017-08-19T10:04:20.320Z,515
2017-08-19T10:05:20.029Z,445
2017-08-19T10:06:20.120Z,445
2017-08-19T10:07:20.279Z,975
2017-08-19T10:08:20.537Z,480
2017-08-19T10:09:20.238Z,295
2017-08-19T10:10:20.220Z,750
2017-08-19T10:11:20.585Z,525
2017-08-19T10:12:21.135Z,370
2017-08-19T10:13:20.201Z,425
2017-08-19T10:14:20.495Z,440
2017-08-19T10:15:20.492Z,660
2017-08-19T10:16:20.621Z,310
2017-08-19T10:17:20.452Z,430
2017-08-19T10:18:19.860Z,445
2017-08-19T10:19:19.520Z,355
2017-08-19T10:20:20.481Z,275
2017-08-19T10:21:19.488Z,370
2017-08-19T10:22:19.489Z,240
2017-08-19T10:23:20.163Z,250
2017-08-19T10:24:20.069Z,330
2017-08-19T10:25:20.083Z,305
2017-08-19T10:26:20.009Z,280
2017-08-19T10:27:20.358Z,275
2017-08-19T10:28:19.987Z,285
2017-08-19T10:29:20.051Z,280
2017-08-19T10:30:20.310Z,285
2017-08-19T10:31:19.950Z,300
2017-08-19T10:32:19.336Z,295
2017-08-19T10:33:19.327Z,415
2017-08-19T10:34:20.227Z,330
2017-08-19T10:35:19.607Z,380
2017-08-19T10:36:20.116Z,315
2017-08-19T10:37:19.937Z,320
2017-08-19T10:38:20.210Z,390
2017-08-19T10:39:19.532Z,385
2017-08-19T10:40:19.550Z,365
2017-08-19T10:41:19.850Z,385
2017-08-19T10:42:19.827Z,315
2017-08-19T10:43:20.174Z,275
2017-08-19T10:44:19.832Z,285
2017-08-19T10:45:20.105Z,305
2017-08-19T10:46:19.146Z,375
2017-08-19T10:47:20.056Z,285
2017-08-19T10:48:19.738Z,360
2017-08-19T10:49:19.731Z,270
2017-08-19T10:50:20.060Z,320
2017-08-19T10:51:20.009Z,365
2017-08-19T10:52:19.515Z,310
2017-08-19T10:53:19.706Z,245
2017-08-19T10:54:19.832Z,350
2017-08-19T10:55:19.651Z,235
2017-08-19T10:56:19.658Z,345
2017-08-19T10:57:19.626Z,330
2017-08-19T10:58:19.671Z,330
2017-08-19T10:59:19.919Z,325
2017-08-19T11:00:19.286Z,255
2017-08-19T11:01:19.679Z,245
2017-08-19T11:02:19.929Z,360
2017-08-19T11:03:19.871Z,350
2017-08-19T11:04:19.577Z,275
2017-08-19T11:05:18.935Z,360
2017-08-19T11:06:19.216Z,345
2017-08-19T11:07:19.146Z,295
2017-08-19T11:08:19.530Z,235
2017-08-19T11:09:19.209Z,290
2017-08-19T11:10:19.793Z,285
2017-08-19T11:11:19.500Z,375
2017-08-19T11:12:19.468Z,365
2017-08-19T11:13:19.489Z,280
2017-08-19T11:14:19.451Z,260
2017-08-19T11:15:19.441Z,305
2017-08-19T11:16:19.449Z,240
2017-08-19T11:17:19.419Z,190
2017-08-19T11:18:19.457Z,185
2017-08-19T11:19:19.400Z,200
2017-08-19T11:20:19.755Z,215
2017-08-19T11:21:19.389Z,245
2017-08-19T11:22:19.451Z,290
2017-08-19T11:23:19.668Z,285
2017-08-19T11:24:19.639Z,290
2017-08-19T11:25:19.312Z,285
2017-08-19T11:26:19.328Z,290
2017-08-19T11:27:19.284Z,295
2017-08-19T11:28:19.299Z,300
2017-08-19T11:29:19.613Z,305
2017-08-19T11:30:19.622Z,350
2017-08-19T11:31:19.584Z,320
2017-08-19T11:32:19.281Z,305
2017-08-19T11:33:19.569Z,290
2017-08-19T11:34:19.630Z,285
2017-08-19T11:35:19.526Z,280
2017-08-19T11:36:19.487Z,280
2017-08-19T11:37:19.522Z,270
2017-08-19T11:38:19.183Z,275
2017-08-19T11:39:19.488Z,305
2017-08-19T11:40:19.450Z,280
2017-08-19T11:41:19.651Z,275
2017-08-19T11:42:19.156Z,260
2017-08-19T11:43:19.460Z,270
2017-08-19T11:44:19.411Z,295
2017-08-19T11:45:19.420Z,310
2017-08-19T11:46:19.434Z,300
2017-08-19T11:47:19.401Z,400
2017-08-19T11:48:19.110Z,385
2017-08-19T11:49:19.354Z,400
2017-08-19T11:50:19.036Z,260
2017-08-19T11:51:19.354Z,270
2017-08-19T11:52:19.331Z,280
2017-08-19T11:53:19.306Z,230
2017-08-19T11:54:19.309Z,345
2017-08-19T11:55:18.675Z,270
2017-08-19T11:56:19.291Z,340
2017-08-19T11:57:19.282Z,320
2017-08-19T11:58:18.924Z,335
2017-08-19T11:59:18.640Z,220
2017-08-19T12:00:19.265Z,255
2017-08-19T12:01:19.229Z,315
2017-08-19T12:02:19.228Z,210
2017-08-19T12:03:19.204Z,330
2017-08-19T12:04:19.181Z,335
2017-08-19T12:05:19.195Z,315
2017-08-19T12:06:19.194Z,300
2017-08-19T12:07:19.152Z,200
2017-08-19T12:08:18.976Z,215
2017-08-19T12:09:19.127Z,335
2017-08-19T12:10:18.803Z,195
2017-08-19T12:11:19.143Z,295
2017-08-19T12:12:19.124Z,210
2017-08-19T12:13:18.821Z,315
2017-08-19T12:14:19.069Z,190
2017-08-19T12:15:18.760Z,205
2017-08-19T12:16:19.063Z,205
2017-08-19T12:17:18.404Z,200
2017-08-19T12:18:19.136Z,205
2017-08-19T12:19:18.756Z,240
2017-08-19T12:20:18.373Z,195
2017-08-19T12:21:18.998Z,195
2017-08-19T12:22:18.667Z,290
2017-08-19T12:23:18.760Z,210
2017-08-19T12:24:18.971Z,190
2017-08-19T12:25:18.022Z,195
2017-08-19T12:26:18.310Z,200
2017-08-19T12:27:18.712Z,205
2017-08-19T12:28:18.292Z,320
2017-08-19T12:29:18.575Z,225
2017-08-19T12:30:18.922Z,325
2017-08-19T12:31:18.928Z,230
2017-08-19T12:32:18.586Z,210
2017-08-19T12:33:18.211Z,315
2017-08-19T12:34:18.262Z,300
2017-08-19T12:35:18.586Z,180
2017-08-19T12:36:18.178Z,265
2017-08-19T12:37:18.537Z,200
2017-08-19T12:38:18.794Z,240
2017-08-19T12:39:18.825Z,230
2017-08-19T12:40:18.133Z,215
2017-08-19T12:41:18.434Z,190
2017-08-19T12:42:18.422Z,180
2017-08-19T12:43:18.392Z,200
2017-08-19T12:44:18.865Z,175
2017-08-19T12:45:18.691Z,170
2017-08-19T12:46:18.744Z,145
2017-08-19T12:47:18.062Z,130
2017-08-19T12:48:18.351Z,120
2017-08-19T12:49:18.328Z,110
2017-08-19T12:50:18.311Z,85
2017-08-19T12:51:18.038Z,80
2017-08-19T12:52:18.606Z,70
2017-08-19T12:53:18.286Z,60
2017-08-19T12:54:18.270Z,55
2017-08-19T12:55:18.569Z,50
2017-08-19T12:56:17.961Z,50
2017-08-19T12:57:18.252Z,45
2017-08-19T12:58:18.226Z,45
2017-08-19T12:59:18.240Z,50
2017-08-19T13:00:18.486Z,60
2017-08-19T13:01:17.913Z,70
2017-08-19T13:02:17.929Z,80
2017-08-19T13:03:18.151Z,85
2017-08-19T13:04:18.151Z,95
2017-08-19T13:05:17.522Z,100
2017-08-19T13:06:17.851Z,105
2017-08-19T13:07:18.132Z,110
2017-08-19T13:08:18.256Z,120
2017-08-19T13:09:18.092Z,180
2017-08-19T13:10:18.076Z,130
2017-08-19T13:11:18.365Z,145
2017-08-19T13:12:18.192Z,170
2017-08-19T13:13:18.118Z,130
2017-08-19T13:14:18.301Z,120
2017-08-19T13:15:17.682Z,115
2017-08-19T13:16:17.960Z,110
2017-08-19T13:17:18.269Z,110
2017-08-19T13:18:17.953Z,120
2017-08-19T13:19:18.237Z,110
2017-08-19T13:20:18.221Z,120
2017-08-19T13:21:18.207Z,110
2017-08-19T13:22:18.207Z,115
2017-08-19T13:23:17.564Z,120
2017-08-19T13:24:17.853Z,120
2017-08-19T13:25:18.144Z,125
2017-08-19T13:26:17.218Z,125
2017-08-19T13:27:18.140Z,130
2017-08-19T13:28:17.824Z,140
2017-08-19T13:29:17.522Z,145
2017-08-19T13:30:18.103Z,145
2017-08-19T13:31:17.461Z,170
2017-08-19T13:32:18.082Z,170
2017-08-19T13:33:17.453Z,185
2017-08-19T13:34:17.420Z,235
2017-08-19T13:35:18.002Z,200
2017-08-19T13:36:17.698Z,270
2017-08-19T13:37:18.104Z,280
2017-08-19T13:38:17.979Z,280
2017-08-19T13:39:18.095Z,275
2017-08-19T13:40:17.633Z,275
2017-08-19T13:41:17.651Z,265
2017-08-19T13:42:18.035Z,250
2017-08-19T13:43:17.631Z,240
2017-08-19T13:44:18.101Z,235
2017-08-19T13:45:17.574Z,230
2017-08-19T13:46:17.914Z,220
2017-08-19T13:47:17.873Z,220
2017-08-19T13:48:17.636Z,220
2017-08-19T13:49:17.225Z,220
2017-08-19T13:50:17.568Z,220
2017-08-19T13:51:17.831Z,215
2017-08-19T13:52:17.211Z,145
2017-08-19T13:53:17.534Z,200
2017-08-19T13:54:17.800Z,110
2017-08-19T13:55:17.905Z,105
2017-08-19T13:56:17.133Z,100
2017-08-19T13:57:17.441Z,100
2017-08-19T13:58:17.437Z,100
2017-08-19T13:59:17.413Z,100
2017-08-19T14:00:17.719Z,95
2017-08-19T14:01:17.730Z,90
2017-08-19T14:02:17.064Z,85
2017-08-19T14:03:17.674Z,75
2017-08-19T14:04:17.646Z,60
2017-08-19T14:05:17.394Z,55
2017-08-19T14:06:17.301Z,45
2017-08-19T14:07:17.325Z,40
2017-08-19T14:08:17.664Z,30
2017-08-19T14:09:17.013Z,25
2017-08-19T14:10:17.261Z,25
2017-08-19T14:11:17.551Z,25